createdAt,value
2018-03-14T00:01:26.476Z,63.60
2018-03-14T00:03:54.902Z,63.29
2018-03-14T00:06:23.679Z,63.08
2018-03-14T00:08:52.057Z,63.07
2018-03-14T00:11:20.444Z,62.51
2018-03-14T00:13:48.819Z,62.58
2018-03-14T00:16:17.700Z,61.63
2018-03-14T00:18:46.069Z,62.69
2018-03-14T00:21:14.440Z,62.52
2018-03-14T00:23:42.826Z,62.38
2018-03-14T00:26:11.206Z,61.28
2018-03-14T00:28:39.575Z,60.85
2018-03-14T00:31:07.948Z,61.12
2018-03-14T00:33:36.324Z,60.95
2018-03-14T00:36:04.704Z,59.87
2018-03-14T00:38:33.124Z,60.73
2018-03-14T00:41:01.515Z,60.01
2018-03-14T00:43:30.303Z,60.89
2018-03-14T00:45:58.687Z,60.62
2018-03-14T00:48:27.456Z,59.48
2018-03-14T00:50:55.832Z,61.27
2018-03-14T00:53:24.199Z,60.17
2018-03-14T00:55:52.675Z,59.96
2018-03-14T00:58:21.059Z,60.42
2018-03-14T01:00:49.443Z,59.51
2018-03-14T01:03:17.820Z,59.14
2018-03-14T01:05:46.311Z,59.45
2018-03-14T01:08:14.679Z,58.87
2018-03-14T01:10:43.070Z,58.99
2018-03-14T01:13:11.472Z,58.21
2018-03-14T01:15:40.252Z,58.30
2018-03-14T01:18:09.117Z,58.49
2018-03-14T01:20:37.547Z,58.64
2018-03-14T01:23:06.044Z,60.41
2018-03-14T01:25:34.555Z,58.83
2018-03-14T01:28:02.936Z,59.18
2018-03-14T01:30:31.317Z,59.10
2018-03-14T01:32:59.795Z,58.55
2018-03-14T01:35:28.177Z,59.27
2018-03-14T01:37:56.600Z,58.84
2018-03-14T01:40:25.003Z,58.68
2018-03-14T01:42:53.407Z,58.89
2018-03-14T01:45:21.894Z,59.93
2018-03-14T01:47:50.356Z,60.23
2018-03-14T01:50:18.732Z,61.07
2018-03-14T01:52:47.100Z,62.04
2018-03-14T01:55:15.493Z,61.58
2018-03-14T01:57:43.896Z,61.55
2018-03-14T02:00:12.372Z,61.31
2018-03-14T02:02:40.739Z,60.65
2018-03-14T02:05:09.131Z,60.79
2018-03-14T02:07:37.507Z,61.04
2018-03-14T02:10:05.986Z,59.64
2018-03-14T02:12:34.368Z,59.71
2018-03-14T02:15:02.847Z,59.16
2018-03-14T02:17:31.228Z,59.72
2018-03-14T02:19:59.605Z,59.71
2018-03-14T02:22:27.995Z,58.88
2018-03-14T02:24:56.365Z,58.71
2018-03-14T02:27:24.747Z,58.42
2018-03-14T02:29:53.228Z,58.94
2018-03-14T02:32:21.610Z,59.71
2018-03-14T02:34:49.988Z,59.08
2018-03-14T02:37:18.351Z,59.37
2018-03-14T02:39:46.719Z,59.51
2018-03-14T02:42:15.094Z,60.24
2018-03-14T02:44:43.475Z,59.50
2018-03-14T02:47:11.892Z,59.26
2018-03-14T02:49:40.256Z,59.32
2018-03-14T02:52:08.652Z,59.16
2018-03-14T02:54:37.028Z,58.81
2018-03-14T02:57:05.395Z,58.90
2018-03-14T02:59:33.750Z,59.08
2018-03-14T03:02:02.107Z,58.93
2018-03-14T03:04:30.521Z,59.08
2018-03-14T03:06:59.004Z,59.44
2018-03-14T03:09:27.368Z,60.14
2018-03-14T03:11:55.879Z,58.87
2018-03-14T03:14:24.240Z,58.10
2018-03-14T03:16:52.616Z,58.30
2018-03-14T03:19:20.974Z,58.08
2018-03-14T03:21:49.379Z,57.95
2018-03-14T03:24:17.730Z,58.37
2018-03-14T03:26:46.133Z,58.58
2018-03-14T03:29:14.520Z,58.62
2018-03-14T03:31:42.977Z,58.41
2018-03-14T03:34:11.381Z,58.38
2018-03-14T03:36:39.769Z,57.86
2018-03-14T03:39:08.131Z,58.64
2018-03-14T03:41:36.509Z,58.03
2018-03-14T03:44:04.878Z,57.27
2018-03-14T03:46:33.276Z,57.27
2018-03-14T03:49:01.650Z,57.81
2018-03-14T03:51:30.020Z,57.73
2018-03-14T03:53:59.091Z,57.53
2018-03-14T03:56:27.447Z,58.30
2018-03-14T03:58:56.370Z,57.82
2018-03-14T04:01:24.773Z,57.27
2018-03-14T04:03:53.115Z,57.55
2018-03-14T04:06:21.476Z,58.50
2018-03-14T04:08:50.215Z,58.18
2018-03-14T04:11:18.588Z,57.47
2018-03-14T04:13:47.370Z,57.41
2018-03-14T04:16:15.770Z,57.33
2018-03-14T04:18:44.120Z,57.67
2018-03-14T04:21:12.480Z,57.49
2018-03-14T04:23:40.966Z,58.24
2018-03-14T04:26:09.380Z,58.40
2018-03-14T04:28:37.731Z,58.81
2018-03-14T04:31:06.214Z,58.27
2018-03-14T04:33:34.573Z,57.94
2018-03-14T04:36:03.340Z,58.15
2018-03-14T04:38:31.688Z,58.53
2018-03-14T04:41:00.066Z,58.09
2018-03-14T04:43:28.419Z,58.49
2018-03-14T04:45:56.829Z,57.66
2018-03-14T04:48:25.211Z,57.72
2018-03-14T04:50:53.569Z,56.81
2018-03-14T04:53:22.024Z,57.43
2018-03-14T04:55:50.469Z,58.13
2018-03-14T04:58:18.928Z,57.20
2018-03-14T05:00:47.400Z,56.71
2018-03-14T05:03:15.792Z,56.63
2018-03-14T05:05:44.338Z,56.84
2018-03-14T05:08:12.763Z,57.70
2018-03-14T05:10:41.148Z,57.71
2018-03-14T05:13:09.597Z,57.96
2018-03-14T05:15:37.988Z,58.25
2018-03-14T05:18:06.333Z,57.91
2018-03-14T05:20:34.687Z,57.44
2018-03-14T05:23:03.522Z,57.16
2018-03-14T05:25:31.883Z,58.11
2018-03-14T05:28:00.232Z,58.08
2018-03-14T05:30:29.003Z,58.12
2018-03-14T05:32:57.447Z,58.83
2018-03-14T05:35:25.885Z,58.36
2018-03-14T05:37:54.640Z,58.92
2018-03-14T05:40:23.011Z,59.54
2018-03-14T05:42:51.386Z,59.08
2018-03-14T05:45:19.763Z,58.56
2018-03-14T05:47:48.196Z,58.31
2018-03-14T05:50:16.561Z,58.47
2018-03-14T05:52:45.332Z,59.17
2018-03-14T05:55:14.143Z,59.38
2018-03-14T05:57:42.563Z,58.67
2018-03-14T06:00:10.935Z,57.93
2018-03-14T06:02:39.526Z,58.50
2018-03-14T06:05:07.893Z,58.98
2018-03-14T06:07:36.299Z,58.63
2018-03-14T06:10:04.678Z,59.38
2018-03-14T06:12:33.057Z,59.25
2018-03-14T06:15:01.425Z,57.93
2018-03-14T06:17:29.788Z,59.31
2018-03-14T06:19:58.187Z,58.13
2018-03-14T06:22:26.543Z,58.57
2018-03-14T06:24:54.978Z,58.93
2018-03-14T06:27:23.318Z,59.16
2018-03-14T06:29:51.691Z,58.82
2018-03-14T06:32:20.050Z,58.14
2018-03-14T06:34:48.459Z,58.40
2018-03-14T06:37:16.840Z,58.10
2018-03-14T06:39:45.290Z,59.20
2018-03-14T06:42:13.749Z,60.13
2018-03-14T06:44:42.606Z,59.71
2018-03-14T06:47:11.089Z,60.10
2018-03-14T06:49:39.438Z,59.43
2018-03-14T06:52:07.815Z,60.35
2018-03-14T06:54:36.168Z,59.50
2018-03-14T06:57:04.535Z,59.31
2018-03-14T06:59:51.144Z,58.36
2018-03-14T07:02:37.792Z,58.48
2018-03-14T07:05:23.959Z,59.39
2018-03-14T07:07:52.452Z,58.98
2018-03-14T07:10:20.832Z,59.83
2018-03-14T07:12:49.263Z,58.00
2018-03-14T07:15:17.623Z,58.22
2018-03-14T07:17:46.614Z,58.27
2018-03-14T07:20:14.995Z,57.84
2018-03-14T07:22:43.386Z,58.08
2018-03-14T07:25:11.829Z,58.22
2018-03-14T07:27:40.222Z,57.93
2018-03-14T07:30:08.596Z,58.66
2018-03-14T07:32:36.970Z,60.04
2018-03-14T07:35:05.456Z,59.81
2018-03-14T07:37:33.817Z,59.95
2018-03-14T07:40:02.241Z,60.68
2018-03-14T07:42:30.617Z,60.81
2018-03-14T07:44:58.983Z,62.29
2018-03-14T07:47:27.348Z,62.29
2018-03-14T07:49:55.727Z,62.66
2018-03-14T07:52:24.097Z,62.59
2018-03-14T07:54:52.451Z,62.28
2018-03-14T07:57:21.243Z,62.65
2018-03-14T07:59:49.612Z,62.97
2018-03-14T08:02:19.182Z,62.93
2018-03-14T08:04:47.544Z,63.94
2018-03-14T08:07:15.933Z,63.96
2018-03-14T08:09:44.284Z,63.63
2018-03-14T08:12:12.679Z,63.62
2018-03-14T08:14:41.102Z,64.28
2018-03-14T08:17:09.864Z,63.01
2018-03-14T08:19:38.332Z,62.36
2018-03-14T08:22:06.718Z,62.44
2018-03-14T08:24:35.076Z,63.29
2018-03-14T08:27:03.464Z,63.00
2018-03-14T08:29:31.833Z,62.56
2018-03-14T08:32:00.192Z,62.55
2018-03-14T08:34:28.682Z,60.95
2018-03-14T08:36:57.011Z,60.95
2018-03-14T08:39:25.779Z,60.06
2018-03-14T08:41:54.180Z,59.80
2018-03-14T08:44:22.545Z,59.42
2018-03-14T08:46:50.987Z,60.24
2018-03-14T08:49:19.724Z,60.94
2018-03-14T08:51:48.099Z,61.12
2018-03-14T08:54:16.466Z,60.65
2018-03-14T08:56:44.861Z,61.58
2018-03-14T08:59:13.639Z,60.93
2018-03-14T09:01:42.243Z,57.70
2018-03-14T09:04:11.008Z,57.20
2018-03-14T09:06:39.388Z,56.60
2018-03-14T09:09:07.745Z,55.79
2018-03-14T09:11:36.114Z,56.86
2018-03-14T09:14:04.479Z,55.63
2018-03-14T09:16:32.850Z,55.18
2018-03-14T09:19:01.200Z,55.74
2018-03-14T09:21:29.579Z,54.92
2018-03-14T09:23:57.940Z,54.37
2018-03-14T09:26:26.308Z,54.04
2018-03-14T09:28:54.684Z,54.83
2018-03-14T09:31:23.052Z,54.47
2018-03-14T09:33:51.412Z,53.22
2018-03-14T09:36:19.823Z,51.59
2018-03-14T09:38:48.225Z,50.39
2018-03-14T09:41:16.596Z,50.16
2018-03-14T09:43:44.955Z,49.43
2018-03-14T09:46:13.339Z,48.47
2018-03-14T09:48:41.702Z,48.07
2018-03-14T09:51:10.084Z,48.27
2018-03-14T09:53:38.436Z,48.32
2018-03-14T09:56:06.826Z,48.12
2018-03-14T09:58:35.191Z,48.63
2018-03-14T10:01:03.567Z,47.66
2018-03-14T10:03:31.936Z,46.23
2018-03-14T10:06:00.324Z,46.74
2018-03-14T10:08:28.736Z,47.25
2018-03-14T10:10:57.120Z,47.79
2018-03-14T10:13:25.478Z,47.20
2018-03-14T10:15:53.871Z,46.78
2018-03-14T10:18:22.253Z,47.14
2018-03-14T10:20:50.616Z,47.26
2018-03-14T10:23:18.981Z,48.24
2018-03-14T10:25:47.448Z,49.08
2018-03-14T10:28:15.744Z,49.79
2018-03-14T10:30:44.111Z,50.73
2018-03-14T10:33:12.466Z,50.72
2018-03-14T10:35:41.232Z,50.95
2018-03-14T10:38:09.605Z,50.88
2018-03-14T10:40:37.979Z,50.69
2018-03-14T10:43:06.346Z,50.84
2018-03-14T10:45:34.707Z,51.71
2018-03-14T10:48:03.728Z,52.27
2018-03-14T10:50:32.125Z,52.98
2018-03-14T10:53:00.491Z,52.18
2018-03-14T10:55:28.872Z,52.31
2018-03-14T10:57:57.241Z,52.57
2018-03-14T11:00:27.264Z,52.75
2018-03-14T11:03:01.238Z,54.02
2018-03-14T11:05:29.612Z,53.42
2018-03-14T11:07:57.991Z,52.57
2018-03-14T11:10:26.442Z,52.66
2018-03-14T11:12:55.195Z,52.15
2018-03-14T11:15:23.547Z,51.92
2018-03-14T11:17:51.922Z,52.40
2018-03-14T11:20:20.324Z,52.24
2018-03-14T11:22:48.672Z,52.94
2018-03-14T11:25:17.045Z,53.36
2018-03-14T11:27:45.432Z,54.41
2018-03-14T11:30:14.006Z,53.76
2018-03-14T11:32:42.186Z,53.42
2018-03-14T11:35:10.608Z,53.90
2018-03-14T11:37:38.940Z,53.04
2018-03-14T11:40:07.328Z,53.64
2018-03-14T11:42:35.695Z,51.87
2018-03-14T11:45:04.054Z,51.54
2018-03-14T11:47:32.434Z,51.75
2018-03-14T11:50:01.202Z,53.86
2018-03-14T11:52:29.551Z,53.22
2018-03-14T11:54:57.924Z,53.09
2018-03-14T11:57:26.298Z,52.92
2018-03-14T11:59:54.656Z,51.86
2018-03-14T12:02:23.040Z,52.20
2018-03-14T12:04:51.416Z,51.30
2018-03-14T12:07:19.768Z,51.24
2018-03-14T12:09:48.315Z,51.31
2018-03-14T12:12:16.706Z,50.60
2018-03-14T12:14:45.065Z,50.76
2018-03-14T12:17:13.444Z,50.77
2018-03-14T12:19:41.807Z,49.55
2018-03-14T12:22:15.843Z,49.80
2018-03-14T12:24:44.194Z,49.18
2018-03-14T12:27:12.721Z,49.25
2018-03-14T12:29:41.095Z,48.81
2018-03-14T12:32:09.450Z,49.06
2018-03-14T12:34:37.815Z,50.04
2018-03-14T12:37:06.190Z,50.40
2018-03-14T12:39:34.565Z,49.68
2018-03-14T12:42:02.942Z,50.75
2018-03-14T12:44:31.329Z,49.90
2018-03-14T12:46:59.728Z,49.95
2018-03-14T12:49:28.093Z,49.80
2018-03-14T12:51:56.463Z,50.37
2018-03-14T12:54:24.823Z,50.49
2018-03-14T12:56:53.667Z,51.35
2018-03-14T12:59:22.031Z,50.82
2018-03-14T13:01:50.413Z,50.11
2018-03-14T13:04:18.780Z,49.18
2018-03-14T13:06:47.139Z,48.93
2018-03-14T13:09:15.560Z,47.92
2018-03-14T13:11:43.968Z,47.91
2018-03-14T13:14:12.323Z,48.17
2018-03-14T13:16:40.694Z,47.92
2018-03-14T13:19:09.062Z,48.84
2018-03-14T13:21:37.442Z,48.51
2018-03-14T13:24:05.811Z,47.39
2018-03-14T13:26:34.228Z,47.76
2018-03-14T13:29:02.583Z,47.67
2018-03-14T13:31:30.972Z,47.25
2018-03-14T13:33:59.450Z,47.33
2018-03-14T13:36:27.815Z,46.81
2018-03-14T13:38:56.177Z,46.50
2018-03-14T13:41:24.602Z,46.41
2018-03-14T13:43:52.955Z,47.61
2018-03-14T13:46:21.319Z,47.43
2018-03-14T13:48:49.689Z,47.34
2018-03-14T13:51:18.048Z,47.56
2018-03-14T13:53:46.416Z,48.01
2018-03-14T13:56:15.172Z,48.87
2018-03-14T13:58:43.564Z,49.12
2018-03-14T14:01:12.041Z,48.95
2018-03-14T14:03:40.408Z,49.21
2018-03-14T14:06:08.767Z,48.34
2018-03-14T14:08:37.179Z,47.94
2018-03-14T14:11:05.564Z,48.05
2018-03-14T14:13:33.934Z,47.41
2018-03-14T14:16:02.701Z,47.49
2018-03-14T14:18:31.084Z,47.48
2018-03-14T14:20:59.444Z,47.13
2018-03-14T14:23:27.853Z,47.34
2018-03-14T14:25:56.223Z,46.57
2018-03-14T14:28:24.612Z,47.17
2018-03-14T14:30:52.970Z,47.68
2018-03-14T14:33:21.351Z,46.66
2018-03-14T14:35:49.727Z,46.13
2018-03-14T14:38:18.086Z,47.17
2018-03-14T14:40:46.439Z,48.96
2018-03-14T14:43:15.301Z,47.54
2018-03-14T14:45:43.679Z,47.86
2018-03-14T14:48:12.080Z,48.04
2018-03-14T14:50:40.828Z,48.05
2018-03-14T14:53:09.201Z,46.99
2018-03-14T14:55:37.556Z,47.08
2018-03-14T14:58:05.922Z,46.76
2018-03-14T15:00:34.284Z,46.39
2018-03-14T15:03:03.036Z,45.39
2018-03-14T15:05:31.402Z,45.25
2018-03-14T15:07:59.768Z,45.84
2018-03-14T15:10:28.127Z,47.35
2018-03-14T15:12:56.502Z,46.21
2018-03-14T15:15:24.872Z,48.38
2018-03-14T15:17:53.660Z,48.26
2018-03-14T15:20:22.403Z,48.65
2018-03-14T15:22:50.772Z,48.23
2018-03-14T15:25:19.177Z,46.68
2018-03-14T15:27:47.624Z,47.02
2018-03-14T15:30:15.958Z,46.11
2018-03-14T15:32:44.720Z,46.88
2018-03-14T15:35:13.072Z,46.52
2018-03-14T15:37:41.438Z,47.76
2018-03-14T15:40:09.787Z,47.69
2018-03-14T15:42:38.560Z,47.12
2018-03-14T15:45:07.426Z,47.25
2018-03-14T15:47:35.799Z,49.40
2018-03-14T15:50:04.152Z,49.68
2018-03-14T15:52:32.511Z,48.77
2018-03-14T15:55:00.863Z,48.55
2018-03-14T15:57:29.234Z,48.93
2018-03-14T15:59:57.707Z,49.19
2018-03-14T16:02:26.165Z,49.22
2018-03-14T16:04:54.543Z,50.52
2018-03-14T16:07:22.903Z,50.23
2018-03-14T16:09:51.303Z,51.24
2018-03-14T16:12:19.687Z,49.98
2018-03-14T16:14:48.043Z,51.25
2018-03-14T16:17:16.568Z,53.13
2018-03-14T16:19:45.342Z,52.26
2018-03-14T16:22:13.737Z,54.46
2018-03-14T16:24:42.099Z,55.77
2018-03-14T16:27:10.484Z,54.62
2018-03-14T16:29:38.846Z,55.04
2018-03-14T16:32:07.207Z,53.99
2018-03-14T16:34:35.559Z,53.66
2018-03-14T16:37:03.921Z,54.33
2018-03-14T16:39:32.693Z,54.63
2018-03-14T16:42:01.047Z,54.75
2018-03-14T16:44:29.730Z,56.38
2018-03-14T16:46:58.530Z,55.17
2018-03-14T16:49:26.916Z,54.75
2018-03-14T16:51:55.277Z,55.74
2018-03-14T16:54:23.633Z,56.83
2018-03-14T16:56:51.993Z,57.13
2018-03-14T16:59:20.346Z,56.66
2018-03-14T17:01:48.705Z,56.53
2018-03-14T17:04:17.066Z,57.76
2018-03-14T17:06:45.415Z,58.31
2018-03-14T17:09:13.778Z,58.70
2018-03-14T17:11:42.538Z,58.51
2018-03-14T17:14:10.891Z,57.85
2018-03-14T17:16:39.268Z,58.58
2018-03-14T17:19:07.632Z,57.69
2018-03-14T17:21:35.996Z,56.42
2018-03-14T17:24:04.342Z,56.28
2018-03-14T17:26:33.136Z,56.56
2018-03-14T17:29:01.890Z,55.74
2018-03-14T17:31:30.279Z,54.76
2018-03-14T17:33:58.632Z,58.23
2018-03-14T17:36:27.049Z,58.76
2018-03-14T17:38:55.364Z,60.26
2018-03-14T17:41:23.712Z,59.39
2018-03-14T17:43:52.457Z,58.36
2018-03-14T17:46:20.823Z,58.09
2018-03-14T17:48:49.171Z,58.45
2018-03-14T17:51:17.925Z,58.38
2018-03-14T17:53:46.293Z,58.06
2018-03-14T17:56:14.677Z,57.39
2018-03-14T17:58:43.046Z,56.89
2018-03-14T18:01:11.400Z,55.46
2018-03-14T18:03:39.763Z,56.08
2018-03-14T18:06:08.156Z,56.79
2018-03-14T18:08:36.519Z,56.83
2018-03-14T18:11:04.893Z,57.99
2018-03-14T18:13:33.235Z,58.42
2018-03-14T18:16:01.631Z,57.94
2018-03-14T18:18:30.405Z,58.44
2018-03-14T18:20:58.866Z,58.35
2018-03-14T18:23:27.248Z,61.72
2018-03-14T18:25:55.616Z,61.92
2018-03-14T18:28:23.963Z,63.10
2018-03-14T18:30:52.317Z,62.86
2018-03-14T18:33:21.187Z,61.94
2018-03-14T18:35:49.545Z,61.04
2018-03-14T18:38:17.899Z,61.14
2018-03-14T18:40:46.303Z,62.05
2018-03-14T18:43:14.684Z,62.02
2018-03-14T18:45:43.054Z,61.98
2018-03-14T18:48:11.427Z,60.65
2018-03-14T18:50:39.796Z,61.13
2018-03-14T18:53:08.152Z,61.06
2018-03-14T18:55:36.605Z,60.08
2018-03-14T18:58:04.967Z,60.02
2018-03-14T19:00:33.353Z,61.05
2018-03-14T19:03:03.363Z,60.88
2018-03-14T19:05:31.758Z,61.07
2018-03-14T19:08:00.564Z,59.90
2018-03-14T19:10:28.904Z,60.14
2018-03-14T19:12:57.260Z,59.60
2018-03-14T19:15:25.634Z,60.26
2018-03-14T19:17:53.974Z,59.13
2018-03-14T19:20:22.744Z,58.19
2018-03-14T19:22:51.095Z,59.33
2018-03-14T19:25:19.465Z,58.89
2018-03-14T19:27:47.857Z,58.43
2018-03-14T19:30:16.339Z,57.94
2018-03-14T19:32:44.705Z,58.19
2018-03-14T19:35:13.117Z,58.94
2018-03-14T19:37:41.489Z,58.96
2018-03-14T19:40:09.864Z,60.54
2018-03-14T19:42:38.212Z,60.22
2018-03-14T19:45:06.578Z,58.84
2018-03-14T19:47:34.948Z,59.72
2018-03-14T19:50:03.329Z,58.94
2018-03-14T19:52:32.650Z,58.53
2018-03-14T19:55:01.012Z,58.58
2018-03-14T19:57:29.354Z,58.36
2018-03-14T19:59:57.724Z,58.02
2018-03-14T20:02:26.134Z,56.98
2018-03-14T20:04:54.645Z,57.60
2018-03-14T20:07:22.999Z,57.52
2018-03-14T20:09:51.361Z,57.29
2018-03-14T20:12:20.140Z,56.11
2018-03-14T20:14:48.575Z,58.05
2018-03-14T20:17:16.945Z,57.34
2018-03-14T20:19:45.315Z,58.22
2018-03-14T20:22:14.013Z,58.78
2018-03-14T20:24:42.475Z,57.18
2018-03-14T20:27:10.900Z,57.96
2018-03-14T20:29:39.260Z,57.82
2018-03-14T20:32:07.690Z,57.38
2018-03-14T20:34:36.035Z,57.76
2018-03-14T20:37:04.427Z,58.54
2018-03-14T20:39:32.787Z,57.79
2018-03-14T20:42:06.092Z,56.38
2018-03-14T20:44:34.448Z,55.77
2018-03-14T20:47:02.835Z,56.46
2018-03-14T20:49:31.196Z,56.85
2018-03-14T20:51:59.591Z,56.83
2018-03-14T20:54:28.058Z,55.43
2018-03-14T20:56:56.419Z,56.16
2018-03-14T20:59:24.839Z,55.73
2018-03-14T21:01:53.231Z,55.55
2018-03-14T21:04:21.615Z,56.57
2018-03-14T21:06:49.970Z,57.00
2018-03-14T21:09:18.327Z,57.18
2018-03-14T21:11:46.689Z,57.71
2018-03-14T21:14:15.132Z,57.13
2018-03-14T21:16:43.496Z,56.75
2018-03-14T21:19:11.871Z,57.22
2018-03-14T21:21:40.233Z,57.45
2018-03-14T21:24:08.647Z,56.65
2018-03-14T21:26:37.010Z,56.09
2018-03-14T21:29:05.369Z,55.96
2018-03-14T21:31:33.725Z,55.38
2018-03-14T21:34:02.096Z,55.60
2018-03-14T21:36:30.482Z,55.45
2018-03-14T21:38:58.904Z,56.42
2018-03-14T21:41:27.244Z,58.21
2018-03-14T21:43:55.619Z,58.53
2018-03-14T21:46:24.029Z,57.50
2018-03-14T21:48:52.398Z,58.52
2018-03-14T21:51:20.803Z,58.75
2018-03-14T21:53:49.154Z,58.57
2018-03-14T21:56:17.517Z,59.21
2018-03-14T21:58:45.876Z,59.38
2018-03-14T22:01:14.635Z,58.47
2018-03-14T22:03:42.980Z,58.70
2018-03-14T22:06:11.382Z,58.31
2018-03-14T22:08:39.786Z,58.62
2018-03-14T22:11:09.041Z,58.72
2018-03-14T22:13:37.400Z,58.48
2018-03-14T22:16:05.772Z,57.58
2018-03-14T22:18:34.143Z,58.68
2018-03-14T22:21:02.513Z,58.73
2018-03-14T22:23:31.247Z,57.30
2018-03-14T22:25:59.643Z,57.24
2018-03-14T22:28:28.034Z,58.37
2018-03-14T22:30:56.402Z,57.72
2018-03-14T22:33:25.191Z,57.32
2018-03-14T22:35:53.640Z,57.65
2018-03-14T22:38:21.986Z,57.94
2018-03-14T22:40:50.743Z,58.45
2018-03-14T22:43:19.088Z,58.76
2018-03-14T22:45:47.452Z,58.44
2018-03-14T22:48:15.828Z,58.39
2018-03-14T22:50:44.186Z,58.98
2018-03-14T22:53:12.942Z,57.81
2018-03-14T22:55:41.401Z,57.22
2018-03-14T22:58:09.827Z,57.09
2018-03-14T23:00:38.147Z,56.79
2018-03-14T23:03:06.822Z,56.23
2018-03-14T23:05:35.266Z,55.94
2018-03-14T23:08:03.592Z,55.79
2018-03-14T23:10:31.972Z,56.29
2018-03-14T23:13:00.352Z,56.78
2018-03-14T23:15:29.717Z,56.64
2018-03-14T23:17:58.548Z,56.55
2018-03-14T23:20:27.015Z,56.70
2018-03-14T23:22:55.491Z,58.11
2018-03-14T23:25:23.888Z,57.44
2018-03-14T23:27:52.240Z,55.97
2018-03-14T23:30:20.606Z,56.84
2018-03-14T23:32:49.351Z,56.86
2018-03-14T23:35:17.711Z,56.67
2018-03-14T23:37:46.093Z,57.03
2018-03-14T23:40:14.464Z,57.56
2018-03-14T23:42:42.924Z,56.97
2018-03-14T23:45:11.301Z,57.74
2018-03-14T23:47:39.643Z,58.43
2018-03-14T23:50:09.098Z,58.36
2018-03-14T23:52:37.480Z,58.86
2018-03-14T23:55:05.852Z,58.48
2018-03-14T23:57:34.201Z,59.27
